Webcam

2017/07/24 00:20 EBBR 240020Z 22005KT CAVOK 15/12 Q1011 TEMPO 4500 SHRA

Webcam image

--- Refresh now ---